createdAt,value
2022-12-06T00:01:23.033Z,5.40
2022-12-06T00:03:54.007Z,4.53
2022-12-06T00:06:23.672Z,5.31
2022-12-06T00:08:52.005Z,6.31
2022-12-06T00:11:23.088Z,6.51
2022-12-06T00:13:55.372Z,7.35
2022-12-06T00:16:23.399Z,5.99
2022-12-06T00:18:50.309Z,4.97
2022-12-06T00:21:28.394Z,7.55
2022-12-06T00:24:07.341Z,6.05
2022-12-06T00:26:43.028Z,7.82
2022-12-06T00:29:15.422Z,6.95
2022-12-06T00:31:42.365Z,7.34
2022-12-06T00:34:09.349Z,4.80
2022-12-06T00:36:39.075Z,7.30
2022-12-06T00:39:11.836Z,7.51
2022-12-06T00:41:39.648Z,5.27
2022-12-06T00:44:07.234Z,6.68
2022-12-06T00:46:35.481Z,7.33
2022-12-06T00:49:04.641Z,6.77
2022-12-06T00:51:33.109Z,6.52
2022-12-06T00:54:00.053Z,6.78
2022-12-06T00:56:27.278Z,4.00
2022-12-06T00:58:54.628Z,6.61
2022-12-06T01:01:27.140Z,7.59
2022-12-06T01:03:59.544Z,6.34
2022-12-06T01:06:30.321Z,7.47
2022-12-06T01:08:59.988Z,6.21
2022-12-06T01:11:27.788Z,6.69
2022-12-06T01:13:55.496Z,7.52
2022-12-06T01:16:27.744Z,5.40
2022-12-06T01:19:03.156Z,7.59
2022-12-06T01:21:30.872Z,6.81
2022-12-06T01:23:57.676Z,5.37
2022-12-06T01:26:33.493Z,6.95
2022-12-06T01:29:01.518Z,6.94
2022-12-06T01:31:35.511Z,6.47
2022-12-06T01:34:06.029Z,5.83
2022-12-06T01:36:33.663Z,6.28
2022-12-06T01:39:01.679Z,6.99
2022-12-06T01:41:28.411Z,7.05
2022-12-06T01:43:56.269Z,5.94
2022-12-06T01:46:45.250Z,6.52
2022-12-06T01:49:11.899Z,7.08
2022-12-06T01:51:43.824Z,6.32
2022-12-06T01:54:13.761Z,6.63
2022-12-06T01:56:40.848Z,6.34
2022-12-06T01:59:09.697Z,5.48
2022-12-06T02:01:39.056Z,6.36
2022-12-06T02:04:07.088Z,5.18
2022-12-06T02:06:34.986Z,5.62
2022-12-06T02:09:05.235Z,4.31
2022-12-06T02:11:35.342Z,6.26
2022-12-06T02:14:09.911Z,4.89
2022-12-06T02:16:55.118Z,5.18
2022-12-06T02:19:54.274Z,6.30
2022-12-06T02:22:45.977Z,6.02
2022-12-06T02:25:34.315Z,5.81
2022-12-06T02:28:05.243Z,6.17
2022-12-06T02:31:00.105Z,5.91
2022-12-06T02:33:44.239Z,5.38
2022-12-06T02:37:09.981Z,4.06
2022-12-06T02:39:49.777Z,5.27
2022-12-06T02:42:23.758Z,4.95
2022-12-06T02:44:54.965Z,5.35
2022-12-06T02:47:27.350Z,5.48
2022-12-06T02:49:57.086Z,5.60
2022-12-06T02:52:27.683Z,5.00
2022-12-06T02:54:57.424Z,3.50
2022-12-06T02:57:35.813Z,5.54
2022-12-06T03:00:02.805Z,5.81
2022-12-06T03:02:31.955Z,4.53
2022-12-06T03:05:13.315Z,5.99
2022-12-06T03:07:45.276Z,5.88
2022-12-06T03:10:41.131Z,5.57
2022-12-06T03:13:25.856Z,6.64
2022-12-06T03:16:07.650Z,6.67
2022-12-06T03:18:44.148Z,4.64
2022-12-06T03:21:19.429Z,6.51
2022-12-06T03:23:51.125Z,6.11
2022-12-06T03:26:25.513Z,7.10
2022-12-06T03:28:56.657Z,4.08
2022-12-06T03:31:24.706Z,6.41
2022-12-06T03:34:01.719Z,3.56
2022-12-06T03:36:31.117Z,5.35
2022-12-06T03:39:05.818Z,5.06
2022-12-06T03:41:39.318Z,6.02
2022-12-06T03:44:06.513Z,6.10
2022-12-06T03:46:39.616Z,6.63
2022-12-06T03:49:18.148Z,5.84
2022-12-06T03:51:46.076Z,6.43
2022-12-06T03:54:13.531Z,6.13
2022-12-06T03:56:40.932Z,5.76
2022-12-06T03:59:10.848Z,6.77
2022-12-06T04:01:39.696Z,4.84
2022-12-06T04:04:07.151Z,6.22
2022-12-06T04:06:33.961Z,6.39
2022-12-06T04:09:20.390Z,6.98
2022-12-06T04:11:47.147Z,6.77
2022-12-06T04:14:14.085Z,4.35
2022-12-06T04:17:00.749Z,4.75
2022-12-06T04:19:27.452Z,5.59
2022-12-06T04:22:12.776Z,6.24
2022-12-06T04:24:39.973Z,4.02
2022-12-06T04:27:25.882Z,4.87
2022-12-06T04:30:11.265Z,7.50
2022-12-06T04:32:56.405Z,8.55
2022-12-06T04:35:41.681Z,8.30
2022-12-06T04:38:26.840Z,7.15
2022-12-06T04:40:53.612Z,8.10
2022-12-06T04:43:38.629Z,8.19
2022-12-06T04:46:07.133Z,5.36
2022-12-06T04:48:33.850Z,7.07
2022-12-06T04:51:00.589Z,4.12
2022-12-06T04:53:27.334Z,2.86
2022-12-06T04:55:54.339Z,3.18
2022-12-06T04:58:21.841Z,3.97
2022-12-06T05:00:55.371Z,5.90
2022-12-06T05:03:22.333Z,6.00
2022-12-06T05:05:50.373Z,6.53
2022-12-06T05:08:17.153Z,5.56
2022-12-06T05:10:48.209Z,5.48
2022-12-06T05:13:15.873Z,4.97
2022-12-06T05:16:03.526Z,5.24
2022-12-06T05:18:30.727Z,5.92
2022-12-06T05:21:16.809Z,7.05
2022-12-06T05:23:44.097Z,8.24
2022-12-06T05:26:13.613Z,4.70
2022-12-06T05:28:40.631Z,4.07
2022-12-06T05:31:07.858Z,4.77
2022-12-06T05:33:35.806Z,7.07
2022-12-06T05:36:15.889Z,8.00
2022-12-06T05:38:45.800Z,7.06
2022-12-06T05:41:15.277Z,6.79
2022-12-06T05:43:42.359Z,4.69
2022-12-06T05:46:09.242Z,5.91
2022-12-06T05:48:36.485Z,6.17
2022-12-06T05:51:03.624Z,5.69
2022-12-06T05:53:30.448Z,6.25
2022-12-06T05:56:03.129Z,7.02
2022-12-06T05:58:29.808Z,5.15
2022-12-06T06:00:57.054Z,5.83
2022-12-06T06:03:24.709Z,5.53
2022-12-06T06:05:56.890Z,6.22
2022-12-06T06:08:23.712Z,5.78
2022-12-06T06:10:51.280Z,5.25
2022-12-06T06:13:18.097Z,4.39
2022-12-06T06:15:44.810Z,3.27
2022-12-06T06:18:12.197Z,6.23
2022-12-06T06:20:39.228Z,6.21
2022-12-06T06:23:06.813Z,6.42
2022-12-06T06:25:33.518Z,5.22
2022-12-06T06:28:00.229Z,4.74
2022-12-06T06:30:27.472Z,5.04
2022-12-06T06:32:54.268Z,4.56
2022-12-06T06:35:21.359Z,5.55
2022-12-06T06:37:48.288Z,4.30
2022-12-06T06:40:15.087Z,4.54
2022-12-06T06:42:42.359Z,4.42
2022-12-06T06:45:09.550Z,5.50
2022-12-06T06:47:36.943Z,4.14
2022-12-06T06:50:04.357Z,3.89
2022-12-06T06:52:30.984Z,4.26
2022-12-06T06:54:57.645Z,4.69
2022-12-06T06:57:25.000Z,3.03
2022-12-06T06:59:52.104Z,4.02
2022-12-06T07:02:19.295Z,4.04
2022-12-06T07:04:46.014Z,4.90
2022-12-06T07:07:19.312Z,4.76
2022-12-06T07:09:48.289Z,5.52
2022-12-06T07:12:15.509Z,6.33
2022-12-06T07:14:42.628Z,4.57
2022-12-06T07:17:09.415Z,4.42
2022-12-06T07:19:36.811Z,3.61
2022-12-06T07:22:03.554Z,5.49
2022-12-06T07:24:30.230Z,6.36
2022-12-06T07:26:57.649Z,7.25
2022-12-06T07:29:24.443Z,7.75
2022-12-06T07:31:53.069Z,7.11
2022-12-06T07:34:19.791Z,6.88
2022-12-06T07:36:46.505Z,8.28
2022-12-06T07:39:15.054Z,8.25
2022-12-06T07:42:01.143Z,8.38
2022-12-06T07:45:02.800Z,6.74
2022-12-06T07:47:38.425Z,5.36
2022-12-06T07:50:12.886Z,6.91
2022-12-06T07:52:43.519Z,9.85
2022-12-06T07:55:11.861Z,9.43
2022-12-06T07:57:43.433Z,6.70
2022-12-06T08:00:14.498Z,8.51
2022-12-06T08:02:41.861Z,9.48
2022-12-06T08:05:09.730Z,13.05
2022-12-06T08:07:37.729Z,9.39
2022-12-06T08:10:05.835Z,9.81
2022-12-06T08:12:32.860Z,7.06
2022-12-06T08:15:00.286Z,7.36
2022-12-06T08:17:29.817Z,9.05
2022-12-06T08:19:57.186Z,9.79
2022-12-06T08:22:24.096Z,10.62
2022-12-06T08:24:50.811Z,11.05
2022-12-06T08:27:17.555Z,12.98
2022-12-06T08:29:45.398Z,14.38
2022-12-06T08:32:13.384Z,12.00
2022-12-06T08:34:40.331Z,15.13
2022-12-06T08:37:08.064Z,13.61
2022-12-06T08:39:34.802Z,12.52
2022-12-06T08:42:06.334Z,10.71
2022-12-06T08:44:33.198Z,10.19
2022-12-06T08:47:01.750Z,14.54
2022-12-06T08:49:30.098Z,14.39
2022-12-06T08:51:59.204Z,15.31
2022-12-06T08:54:27.361Z,10.70
2022-12-06T08:56:54.622Z,14.78
2022-12-06T08:59:21.593Z,13.67
2022-12-06T09:01:48.773Z,15.88
2022-12-06T09:04:15.729Z,15.62
2022-12-06T09:06:44.927Z,16.16
2022-12-06T09:09:13.625Z,11.10
2022-12-06T09:11:41.409Z,11.65
2022-12-06T09:14:19.546Z,13.33
2022-12-06T09:16:50.725Z,13.55
2022-12-06T09:19:17.826Z,9.96
2022-12-06T09:21:46.461Z,8.11
2022-12-06T09:24:16.056Z,7.33
2022-12-06T09:26:44.016Z,8.12
2022-12-06T09:29:11.437Z,8.78
2022-12-06T09:31:41.108Z,5.68
2022-12-06T09:34:09.576Z,7.58
2022-12-06T09:36:43.756Z,7.81
2022-12-06T09:39:21.516Z,6.42
2022-12-06T09:41:57.512Z,8.52
2022-12-06T09:44:37.057Z,6.94
2022-12-06T09:47:06.606Z,7.88
2022-12-06T09:49:54.704Z,9.31
2022-12-06T09:52:40.465Z,8.10
2022-12-06T09:55:10.237Z,10.11
2022-12-06T09:57:58.173Z,9.10
2022-12-06T10:00:28.705Z,8.00
2022-12-06T10:03:14.309Z,10.27
2022-12-06T10:06:03.730Z,11.11
2022-12-06T10:08:39.975Z,10.58
2022-12-06T10:11:15.901Z,11.78
2022-12-06T10:14:20.884Z,11.48
2022-12-06T10:17:18.557Z,10.79
2022-12-06T10:19:50.886Z,8.79
2022-12-06T10:22:36.046Z,8.14
2022-12-06T10:25:16.241Z,7.73
2022-12-06T10:28:11.817Z,8.41
2022-12-06T10:31:06.451Z,8.56
2022-12-06T10:33:53.072Z,5.89
2022-12-06T10:36:35.820Z,9.14
2022-12-06T10:39:17.945Z,9.59
2022-12-06T10:42:09.137Z,8.97
2022-12-06T10:44:45.092Z,10.77
2022-12-06T10:47:16.823Z,9.38
2022-12-06T10:49:55.759Z,10.02
2022-12-06T10:52:43.922Z,7.24
2022-12-06T10:55:10.819Z,8.22
2022-12-06T10:57:43.820Z,9.08
2022-12-06T11:00:25.642Z,7.21
2022-12-06T11:03:47.603Z,8.46
2022-12-06T11:06:33.345Z,9.15
2022-12-06T11:09:13.491Z,9.89
2022-12-06T11:11:41.501Z,9.83
2022-12-06T11:14:27.292Z,10.54
2022-12-06T11:17:39.373Z,10.95
2022-12-06T11:20:15.202Z,11.12
2022-12-06T11:22:48.600Z,10.06
2022-12-06T11:25:36.450Z,11.54
2022-12-06T11:28:21.688Z,11.61
2022-12-06T11:30:54.513Z,10.72
2022-12-06T11:33:34.708Z,11.88
2022-12-06T11:36:05.078Z,10.81
2022-12-06T11:38:35.241Z,10.60
2022-12-06T11:41:04.386Z,10.48
2022-12-06T11:43:35.314Z,11.47
2022-12-06T11:46:04.665Z,11.07
2022-12-06T11:48:34.274Z,11.46
2022-12-06T11:51:01.116Z,11.71
2022-12-06T11:53:42.672Z,10.99
2022-12-06T11:56:20.577Z,11.20
2022-12-06T11:58:56.048Z,10.82
2022-12-06T12:01:46.841Z,11.03
2022-12-06T12:04:24.802Z,11.88
2022-12-06T12:06:57.316Z,11.84
2022-12-06T12:09:26.264Z,10.86
2022-12-06T12:12:03.729Z,10.19
2022-12-06T12:14:39.866Z,11.29
2022-12-06T12:17:34.081Z,10.76
2022-12-06T12:20:08.595Z,11.21
2022-12-06T12:22:42.970Z,12.20
2022-12-06T12:25:29.660Z,11.53
2022-12-06T12:27:58.934Z,11.83
2022-12-06T12:30:32.128Z,11.46
2022-12-06T12:33:07.701Z,11.83
2022-12-06T12:35:37.210Z,11.95
2022-12-06T12:38:11.477Z,11.48
2022-12-06T12:40:45.673Z,11.44
2022-12-06T12:43:12.352Z,11.74
2022-12-06T12:45:41.258Z,11.98
2022-12-06T12:48:26.180Z,11.16
2022-12-06T12:50:58.110Z,12.05
2022-12-06T12:53:36.736Z,11.67
2022-12-06T12:56:08.144Z,10.73
2022-12-06T12:58:36.330Z,10.75
2022-12-06T13:01:19.909Z,9.11
2022-12-06T13:03:51.830Z,11.47
2022-12-06T13:06:32.613Z,10.82
2022-12-06T13:09:03.327Z,11.80
2022-12-06T13:11:31.722Z,9.60
2022-12-06T13:14:00.142Z,9.94
2022-12-06T13:16:35.331Z,11.73
2022-12-06T13:19:02.735Z,12.18
2022-12-06T13:21:37.247Z,9.82
2022-12-06T13:24:10.447Z,11.27
2022-12-06T13:26:39.473Z,8.98
2022-12-06T13:29:37.443Z,11.14
2022-12-06T13:32:15.251Z,11.24
2022-12-06T13:34:49.265Z,11.63
2022-12-06T13:37:43.566Z,11.23
2022-12-06T13:40:50.565Z,11.26
2022-12-06T13:43:27.201Z,11.32
2022-12-06T13:46:00.774Z,11.49
2022-12-06T13:48:27.597Z,11.66
2022-12-06T13:50:57.520Z,11.07
2022-12-06T13:53:26.929Z,11.45
2022-12-06T13:56:14.490Z,11.38
2022-12-06T13:58:49.099Z,11.35
2022-12-06T14:01:39.920Z,11.49
2022-12-06T14:06:56.006Z,10.68
2022-12-06T14:09:24.272Z,11.33
2022-12-06T14:11:51.428Z,10.91
2022-12-06T14:14:23.928Z,10.84
2022-12-06T14:16:54.383Z,10.42
2022-12-06T14:19:21.155Z,10.87
2022-12-06T14:21:56.301Z,10.99
2022-12-06T14:24:38.637Z,9.77
2022-12-06T14:27:17.402Z,9.74
2022-12-06T14:29:58.234Z,11.06
2022-12-06T14:32:38.852Z,10.82
2022-12-06T14:35:12.447Z,11.35
2022-12-06T14:37:39.701Z,11.04
2022-12-06T14:40:51.139Z,9.73
2022-12-06T14:43:19.442Z,10.99
2022-12-06T14:45:46.923Z,10.73
2022-12-06T14:48:14.858Z,11.15
2022-12-06T14:50:43.449Z,10.44
2022-12-06T14:53:30.151Z,11.39
2022-12-06T14:56:02.704Z,10.55
2022-12-06T14:58:33.109Z,11.31
2022-12-06T15:01:36.449Z,10.95
2022-12-06T15:04:07.190Z,10.52
2022-12-06T15:06:35.754Z,11.26
2022-12-06T15:09:02.437Z,10.96
2022-12-06T15:11:47.713Z,9.76
2022-12-06T15:14:17.557Z,10.23
2022-12-06T15:17:00.193Z,9.90
2022-12-06T15:19:30.182Z,9.93
2022-12-06T15:21:57.784Z,10.58
2022-12-06T15:24:26.902Z,10.07
2022-12-06T15:26:53.929Z,10.64
2022-12-06T15:29:21.479Z,10.24
2022-12-06T15:31:51.464Z,10.33
2022-12-06T15:34:28.119Z,9.18
2022-12-06T15:37:30.211Z,9.58
2022-12-06T15:39:48.423Z,10.05
2022-12-06T15:42:21.843Z,10.29
2022-12-06T15:44:50.355Z,9.83
2022-12-06T15:47:19.800Z,8.63
2022-12-06T15:49:47.704Z,10.27
2022-12-06T15:52:21.808Z,10.31
2022-12-06T15:54:48.640Z,10.30
2022-12-06T15:57:15.740Z,9.92
2022-12-06T15:59:43.724Z,10.04
2022-12-06T16:02:16.885Z,8.06
2022-12-06T16:04:45.567Z,9.52
2022-12-06T16:07:13.541Z,10.17
2022-12-06T16:09:40.275Z,9.29
2022-12-06T16:12:07.283Z,8.80
2022-12-06T16:14:33.998Z,8.70
2022-12-06T16:17:00.772Z,8.79
2022-12-06T16:19:49.956Z,7.14
2022-12-06T16:22:17.255Z,8.11
2022-12-06T16:24:45.454Z,6.49
2022-12-06T16:27:14.206Z,8.91
2022-12-06T16:29:40.929Z,8.50
2022-12-06T16:32:07.974Z,8.78
2022-12-06T16:34:34.761Z,9.02
2022-12-06T16:37:09.074Z,9.25
2022-12-06T16:39:35.867Z,9.67
2022-12-06T16:42:04.684Z,9.04
2022-12-06T16:44:32.556Z,8.79
2022-12-06T16:46:59.694Z,9.06
2022-12-06T16:49:46.499Z,8.94
2022-12-06T16:52:14.568Z,8.09
2022-12-06T16:54:42.171Z,8.53
2022-12-06T16:57:11.818Z,9.07
2022-12-06T16:59:40.326Z,8.27
2022-12-06T17:02:23.281Z,7.99
2022-12-06T17:04:49.972Z,8.19
2022-12-06T17:07:17.517Z,7.31
2022-12-06T17:09:44.186Z,7.11
2022-12-06T17:12:14.069Z,6.62
2022-12-06T17:14:41.566Z,8.46
2022-12-06T17:17:17.716Z,8.44
2022-12-06T17:19:46.284Z,7.64
2022-12-06T17:22:19.299Z,9.16
2022-12-06T17:24:46.475Z,8.17
2022-12-06T17:27:15.047Z,9.17
2022-12-06T17:29:45.635Z,9.37
2022-12-06T17:32:14.680Z,7.99
2022-12-06T17:34:41.563Z,8.45
2022-12-06T17:37:08.455Z,8.79
2022-12-06T17:39:35.332Z,7.99
2022-12-06T17:42:21.820Z,8.44
2022-12-06T17:44:50.673Z,8.08
2022-12-06T17:47:18.969Z,7.91
2022-12-06T17:49:46.620Z,8.73
2022-12-06T17:52:14.891Z,8.37
2022-12-06T17:54:41.743Z,8.53
2022-12-06T17:57:15.430Z,7.94
2022-12-06T17:59:42.264Z,8.93
2022-12-06T18:02:16.058Z,8.42
2022-12-06T18:04:45.038Z,6.56
2022-12-06T18:07:13.457Z,8.11
2022-12-06T18:09:40.921Z,7.87
2022-12-06T18:12:10.015Z,7.63
2022-12-06T18:14:36.819Z,5.19
2022-12-06T18:17:04.445Z,6.21
2022-12-06T18:19:31.885Z,6.45
2022-12-06T18:21:58.888Z,6.30
2022-12-06T18:24:30.456Z,6.94
2022-12-06T18:27:00.920Z,7.55
2022-12-06T18:29:29.133Z,7.90
2022-12-06T18:31:56.140Z,8.24
2022-12-06T18:34:23.134Z,6.96
2022-12-06T18:36:51.000Z,7.33
2022-12-06T18:39:24.526Z,7.17
2022-12-06T18:41:53.210Z,5.83
2022-12-06T18:44:20.130Z,7.36
2022-12-06T18:46:47.137Z,8.13
2022-12-06T18:49:15.551Z,8.52
2022-12-06T18:51:42.552Z,7.09
2022-12-06T18:54:10.780Z,6.44
2022-12-06T18:56:37.596Z,6.18
2022-12-06T18:59:07.301Z,7.28
2022-12-06T19:01:36.571Z,7.39
2022-12-06T19:04:05.767Z,8.23
2022-12-06T19:06:35.699Z,7.15
2022-12-06T19:09:09.561Z,5.64
2022-12-06T19:11:40.877Z,6.86
2022-12-06T19:14:08.265Z,6.47
2022-12-06T19:16:38.151Z,7.27
2022-12-06T19:19:11.453Z,8.52
2022-12-06T19:21:44.896Z,7.98
2022-12-06T19:24:13.253Z,7.20
2022-12-06T19:26:41.954Z,7.49
2022-12-06T19:29:08.986Z,7.46
2022-12-06T19:31:36.205Z,8.82
2022-12-06T19:34:04.150Z,3.98
2022-12-06T19:36:32.239Z,5.94
2022-12-06T19:39:06.279Z,8.23
2022-12-06T19:41:52.694Z,6.36
2022-12-06T19:44:19.422Z,8.22
2022-12-06T19:46:47.945Z,7.77
2022-12-06T19:49:17.959Z,7.96
2022-12-06T19:51:47.725Z,7.88
2022-12-06T19:54:18.799Z,8.51
2022-12-06T19:56:49.448Z,8.68
2022-12-06T19:59:17.529Z,8.00
2022-12-06T20:01:47.965Z,6.11
2022-12-06T20:04:19.192Z,7.26
2022-12-06T20:06:47.935Z,4.33
2022-12-06T20:09:15.296Z,6.12
2022-12-06T20:12:01.520Z,6.64
2022-12-06T20:14:36.039Z,7.02
2022-12-06T20:17:06.945Z,7.22
2022-12-06T20:19:34.535Z,7.11
2022-12-06T20:22:01.963Z,6.23
2022-12-06T20:24:30.612Z,3.42
2022-12-06T20:26:57.782Z,7.10
2022-12-06T20:29:27.017Z,7.16
2022-12-06T20:31:56.097Z,7.91
2022-12-06T20:34:22.805Z,7.76
2022-12-06T20:36:49.896Z,8.81
2022-12-06T20:39:25.092Z,7.77
2022-12-06T20:41:52.456Z,6.10
2022-12-06T20:44:20.922Z,6.50
2022-12-06T20:46:50.925Z,6.91
2022-12-06T20:49:17.989Z,6.55
2022-12-06T20:51:51.106Z,6.63
2022-12-06T20:54:20.216Z,8.14
2022-12-06T20:56:51.110Z,7.42
2022-12-06T20:59:17.999Z,4.89
2022-12-06T21:01:46.398Z,7.82
2022-12-06T21:04:14.338Z,6.80
2022-12-06T21:06:42.713Z,7.31
2022-12-06T21:09:09.466Z,7.88
2022-12-06T21:11:37.516Z,7.33
2022-12-06T21:14:06.324Z,5.58
2022-12-06T21:16:34.340Z,6.88
2022-12-06T21:19:06.591Z,7.24
2022-12-06T21:21:39.691Z,7.33
2022-12-06T21:24:18.765Z,7.04
2022-12-06T21:26:47.179Z,8.22
2022-12-06T21:29:29.739Z,6.42
2022-12-06T21:32:01.178Z,8.59
2022-12-06T21:34:28.031Z,7.92
2022-12-06T21:36:54.726Z,8.33
2022-12-06T21:39:22.480Z,7.38
2022-12-06T21:41:50.578Z,9.59
2022-12-06T21:44:17.707Z,9.43
2022-12-06T21:46:45.594Z,9.61
2022-12-06T21:49:12.958Z,7.66
2022-12-06T21:51:39.712Z,9.00
2022-12-06T21:54:09.181Z,8.35
2022-12-06T21:56:36.035Z,7.57
2022-12-06T21:59:03.755Z,7.90
2022-12-06T22:01:32.729Z,8.85
2022-12-06T22:04:04.637Z,9.11
2022-12-06T22:06:33.607Z,9.79
2022-12-06T22:09:05.824Z,8.81
2022-12-06T22:11:34.530Z,8.70
2022-12-06T22:14:02.466Z,9.51
2022-12-06T22:16:29.560Z,8.61
2022-12-06T22:18:57.385Z,7.82
2022-12-06T22:21:27.081Z,9.22
2022-12-06T22:23:57.470Z,8.50
2022-12-06T22:26:25.286Z,8.79
2022-12-06T22:28:52.375Z,9.74
2022-12-06T22:31:25.076Z,9.63
2022-12-06T22:33:52.389Z,8.66
2022-12-06T22:36:21.013Z,8.67
2022-12-06T22:38:52.394Z,9.36
2022-12-06T22:41:20.984Z,9.85
2022-12-06T22:43:52.732Z,8.56
2022-12-06T22:46:20.970Z,8.92
2022-12-06T22:48:48.649Z,9.48
2022-12-06T22:51:21.404Z,8.52
2022-12-06T22:53:53.193Z,8.50
2022-12-06T22:56:21.104Z,8.87
2022-12-06T22:58:48.106Z,8.82
2022-12-06T23:01:17.993Z,6.23
2022-12-06T23:03:46.866Z,8.36
2022-12-06T23:06:14.540Z,9.01
2022-12-06T23:08:42.289Z,9.08
2022-12-06T23:11:15.071Z,7.62
2022-12-06T23:13:42.335Z,7.79
2022-12-06T23:16:18.270Z,8.84
2022-12-06T23:18:45.791Z,8.83
2022-12-06T23:21:27.883Z,7.63
2022-12-06T23:23:56.657Z,9.48
2022-12-06T23:26:26.485Z,9.48
2022-12-06T23:28:53.644Z,8.98
2022-12-06T23:31:26.183Z,9.41
2022-12-06T23:34:02.084Z,8.95
2022-12-06T23:36:32.249Z,9.34
2022-12-06T23:38:58.952Z,5.94
2022-12-06T23:41:28.391Z,5.21
2022-12-06T23:43:56.428Z,7.21
2022-12-06T23:46:26.765Z,6.90
2022-12-06T23:48:53.918Z,6.83
2022-12-06T23:51:23.684Z,7.01
2022-12-06T23:53:59.360Z,7.49
2022-12-06T23:56:28.582Z,8.92
2022-12-06T23:58:56.026Z,9.32
